Time;durP1;ratioP1;P1;durP2;ratioP2;P2;SDS_P1;SDS_P2;PMS_P1;PMS_P2;Temp;Humidity;BMP_temperature;BMP_pressure;BME280_temperature;BME280_humidity;BME280_pressure;Samples;Min_cycle;Max_cycle;Signal;HPM_P1;HPM_P2
2022/04/16 00:00:42;;;;;;;6.18;3.15;;;;;;;7.14;85.15;100912.22;12221505;19;20022;-80
2022/04/16 00:04:45;;;;;;;6.47;3.17;;;;;;;7.12;86.03;100908.84;12213376;19;20010;-80
2022/04/16 00:08:46;;;;;;;7.65;3.45;;;;;;;7.10;85.69;100910.94;12186795;19;20003;-79
2022/04/16 00:12:49;;;;;;;4.93;3.38;;;;;;;7.05;85.55;100904.16;12204750;19;20049;-79
2022/04/16 00:16:51;;;;;;;;;;;;;;;7.03;86.12;100903.50;12216528;19;20010;-80
2022/04/16 00:20:53;;;;;;;8.25;4.00;;;;;;;7.03;86.35;100902.69;12185604;19;19986;-80
2022/04/16 00:24:55;;;;;;;5.83;3.47;;;;;;;7.06;85.70;100910.50;12206645;19;20081;-80
2022/04/16 00:28:59;;;;;;;6.38;3.88;;;;;;;7.02;85.81;100909.19;12213657;19;20261;-79
2022/04/16 00:33:02;;;;;;;7.05;4.15;;;;;;;6.97;85.83;100918.03;12184312;19;20014;-79
2022/04/16 00:37:04;;;;;;;8.00;3.75;;;;;;;6.92;86.51;100916.91;12210293;19;20003;-79
2022/04/16 00:41:06;;;;;;;5.43;3.20;;;;;;;6.90;86.81;100919.88;12211105;19;20077;-80
2022/04/16 00:45:07;;;;;;;5.97;3.83;;;;;;;6.91;86.94;100926.19;12178922;19;20074;-78
2022/04/16 00:49:09;;;;;;;6.72;4.00;;;;;;;6.88;87.65;100927.44;12205037;19;20086;-79
2022/04/16 00:53:14;;;;;;;7.38;4.05;;;;;;;6.90;87.42;100932.69;12210876;19;20007;-80
2022/04/16 00:57:17;;;;;;;7.05;3.67;;;;;;;6.97;87.49;100928.13;12179709;19;20010;-79
2022/04/16 01:01:19;;;;;;;6.20;4.18;;;;;;;7.04;88.05;100918.91;12210669;19;20074;-80
2022/04/16 01:05:22;;;;;;;6.55;4.05;;;;;;;7.19;88.31;100923.44;12218239;19;20606;-79
2022/04/16 01:09:25;;;;;;;6.23;3.87;;;;;;;7.36;87.15;100923.97;12256228;19;20084;-80
2022/04/16 01:13:26;;;;;;;8.15;4.15;;;;;;;7.54;87.52;100935.25;12258207;19;20262;-82
2022/04/16 01:17:28;;;;;;;6.50;4.35;;;;;;;7.74;87.36;100927.97;12232126;19;20003;-82
2022/04/16 01:21:30;;;;;;;6.05;4.05;;;;;;;7.91;86.59;100920.25;12264162;19;20010;-81
2022/04/16 01:25:33;;;;;;;6.05;3.78;;;;;;;8.06;86.21;100927.47;12254593;19;20014;-82
2022/04/16 01:29:35;;;;;;;9.57;4.90;;;;;;;8.18;85.91;100931.31;12235847;19;20006;-82
2022/04/16 01:33:37;;;;;;;9.68;4.43;;;;;;;8.26;85.80;100930.28;12244873;19;20029;-82
2022/04/16 01:37:38;;;;;;;7.65;4.55;;;;;;;8.33;85.69;100920.13;12258655;19;20017;-79
2022/04/16 01:41:40;;;;;;;9.85;4.80;;;;;;;8.42;85.09;100935.44;12200578;19;20673;-80
2022/04/16 01:45:42;;;;;;;9.00;4.87;;;;;;;8.44;84.91;100933.28;12206567;19;20064;-79
2022/04/16 01:49:44;;;;;;;9.88;4.45;;;;;;;8.51;84.91;100939.66;12201258;19;20007;-80
2022/04/16 01:53:46;;;;;;;9.13;4.93;;;;;;;8.61;84.17;100944.75;12185548;19;20014;-80
2022/04/16 01:57:47;;;;;;;9.30;4.70;;;;;;;8.62;84.68;100933.53;12201272;19;20919;-79
2022/04/16 02:01:49;;;;;;;7.63;4.55;;;;;;;8.65;84.82;100937.75;12203981;19;20082;-79
2022/04/16 02:05:52;;;;;;;7.63;4.90;;;;;;;8.76;83.74;100939.06;12188925;19;20029;-79
2022/04/16 02:09:54;;;;;;;8.43;4.95;;;;;;;8.72;84.16;100938.63;12212748;19;20015;-79
2022/04/16 02:13:56;;;;;;;10.35;4.82;;;;;;;8.73;83.96;100933.97;12203251;19;20031;-79
2022/04/16 02:17:58;;;;;;;7.45;4.72;;;;;;;8.74;83.76;100933.75;12197844;19;20006;-79
2022/04/16 02:21:59;;;;;;;9.73;5.45;;;;;;;8.73;83.78;100917.50;12214340;19;20015;-79
2022/04/16 02:26:02;;;;;;;12.93;5.50;;;;;;;8.71;83.73;100925.09;12198555;19;20024;-79
2022/04/16 02:30:05;;;;;;;;;;;;;;;8.70;83.99;100913.25;12177080;19;20086;-79
2022/04/16 02:34:08;;;;;;;9.83;6.90;;;;;;;8.64;84.70;100923.19;12210391;19;19927;-79
2022/04/16 02:38:10;;;;;;;8.60;5.30;;;;;;;8.65;84.22;100927.63;12213649;19;20010;-81
2022/04/16 02:42:13;;;;;;;8.32;4.65;;;;;;;8.67;84.44;100925.50;12178642;19;20021;-81
2022/04/16 02:50:35;;;;;;;9.82;5.75;;;;;;;8.66;84.90;100934.81;12173123;19;19914;-80
2022/04/16 02:54:37;;;;;;;10.02;6.68;;;;;;;8.69;84.70;100935.47;12205629;19;20011;-81
2022/04/16 02:58:38;;;;;;;12.30;6.55;;;;;;;8.66;84.90;100928.50;12187059;19;20050;-79
2022/04/16 03:02:43;;;;;;;10.38;5.70;;;;;;;8.63;84.68;100934.41;12186698;19;20079;-79
2022/04/16 03:06:45;;;;;;;9.77;5.68;;;;;;;8.57;85.17;100938.00;12228687;19;20057;-81
2022/04/16 03:10:47;;;;;;;9.40;5.53;;;;;;;8.53;85.07;100951.28;12255511;19;20103;-82
2022/04/16 03:19:09;;;;;;;11.52;5.95;;;;;;;8.44;86.36;100950.63;12214488;19;20002;-79
2022/04/16 03:23:11;;;;;;;12.85;7.20;;;;;;;8.46;86.39;100950.44;12206437;19;20356;-82
2022/04/16 03:27:12;;;;;;;9.73;6.30;;;;;;;8.51;86.59;100952.56;12176941;19;20017;-79
2022/04/16 03:31:14;;;;;;;11.98;6.78;;;;;;;8.58;85.73;100948.75;12202853;19;20003;-79
2022/04/16 03:35:18;;;;;;;10.75;6.32;;;;;;;8.63;85.65;100946.22;12200266;19;20018;-80
2022/04/16 03:39:21;;;;;;;12.30;6.25;;;;;;;8.66;85.76;100940.31;12173209;19;20010;-79
2022/04/16 03:43:26;;;;;;;12.88;6.82;;;;;;;8.70;85.95;100945.38;12210292;19;20010;-80
2022/04/16 03:47:28;;;;;;;10.65;6.53;;;;;;;8.74;86.07;100942.00;12189481;19;20019;-80
2022/04/16 03:51:30;;;;;;;11.32;6.70;;;;;;;8.77;85.94;100946.22;12204627;19;20014;-80
2022/04/16 03:59:59;;;;;;;11.70;6.35;;;;;;;8.81;85.92;100955.78;12192011;19;20011;-79
2022/04/16 04:04:01;;;;;;;11.07;6.00;;;;;;;8.84;85.79;100952.59;12210839;19;20350;-80
2022/04/16 04:08:07;;;;;;;12.07;6.75;;;;;;;8.86;85.35;100961.47;12209457;19;22048;-80
2022/04/16 04:12:13;;;;;;;13.27;7.22;;;;;;;8.83;85.59;100953.63;12185902;19;20013;-81
2022/04/16 04:16:19;;;;;;;10.40;5.45;;;;;;;8.83;85.43;100957.25;12210369;19;20021;-80
2022/04/16 04:20:22;;;;;;;9.47;5.57;;;;;;;8.81;85.96;100969.50;12185528;19;20169;-80
2022/04/16 04:24:23;;;;;;;10.40;5.77;;;;;;;8.81;85.98;100964.00;12210668;19;20591;-80
2022/04/16 04:28:25;;;;;;;10.88;5.82;;;;;;;8.81;85.93;100970.34;12204776;19;20014;-82
2022/04/16 04:32:28;;;;;;;9.20;5.70;;;;;;;8.77;86.23;100968.22;12183779;19;20069;-79
2022/04/16 04:36:29;;;;;;;12.15;6.68;;;;;;;8.75;86.48;100973.94;12203631;19;20014;-81
2022/04/16 04:40:31;;;;;;;10.80;6.00;;;;;;;8.73;86.85;100984.28;12208158;19;20518;-81
2022/04/16 04:44:33;;;;;;;10.20;6.43;;;;;;;8.77;86.46;100973.72;12185554;19;20006;-79
2022/04/16 04:48:34;;;;;;;9.40;5.50;;;;;;;8.80;86.63;100978.78;12210105;19;20011;-81
2022/04/16 04:52:38;;;;;;;8.85;5.07;;;;;;;8.82;86.73;100987.69;12203605;19;20031;-80
2022/04/16 04:56:40;;;;;;;10.23;5.57;;;;;;;8.85;86.45;100987.25;12183521;19;19999;-81
2022/04/16 05:00:41;;;;;;;10.32;5.38;;;;;;;8.87;86.77;101002.50;12210800;19;20010;-81
2022/04/16 05:04:43;;;;;;;9.27;5.53;;;;;;;8.95;86.33;101004.19;12205195;19;20425;-80
2022/04/16 05:08:46;;;;;;;10.57;5.87;;;;;;;8.96;85.83;100992.13;12188360;19;20014;-81
2022/04/16 05:12:47;;;;;;;10.07;5.40;;;;;;;8.98;86.24;101000.16;12205964;19;20015;-80
2022/04/16 05:16:50;;;;;;;8.43;4.60;;;;;;;9.08;85.53;101014.34;12209354;19;20003;-80
2022/04/16 05:20:52;;;;;;;9.38;5.35;;;;;;;9.13;85.63;101012.66;12184294;19;20122;-80
2022/04/16 05:24:53;;;;;;;9.68;4.75;;;;;;;9.19;85.33;101010.09;12204531;19;20720;-81
2022/04/16 05:28:56;;;;;;;8.55;5.15;;;;;;;9.21;85.09;101022.59;12200943;19;20014;-81
2022/04/16 05:33:02;;;;;;;9.55;5.00;;;;;;;9.22;85.23;101012.44;12181836;19;20006;-79
2022/04/16 05:37:04;;;;;;;9.10;4.88;;;;;;;9.31;85.09;101017.53;12207307;19;20109;-80
2022/04/16 05:41:05;;;;;;;9.20;4.68;;;;;;;9.46;84.26;101020.06;12197675;19;20070;-81
2022/04/16 05:45:08;;;;;;;7.93;4.45;;;;;;;9.40;84.36;101022.81;12179221;19;20006;-79
2022/04/16 05:49:10;;;;;;;;;;;;;;;9.46;84.45;101027.44;12209063;19;20015;-79
2022/04/16 05:53:13;;;;;;;7.68;4.25;;;;;;;9.57;84.14;101033.16;12195329;19;19970;-80
2022/04/16 05:57:17;;;;;;;8.30;4.20;;;;;;;9.64;83.79;101046.06;12177012;19;20010;-82
2022/04/16 06:01:18;;;;;;;8.13;3.70;;;;;;;9.80;82.92;101037.38;12207496;19;20006;-81
2022/04/16 06:05:22;;;;;;;7.93;4.60;;;;;;;9.87;82.29;101049.19;12182203;19;20003;-81
2022/04/16 06:09:23;;;;;;;;;;;;;;;9.90;81.98;101054.28;12185617;19;20031;-81
2022/04/16 06:13:25;;;;;;;7.30;3.88;;;;;;;10.12;81.59;101059.53;12203200;19;19911;-81
2022/04/16 06:17:27;;;;;;;7.68;4.15;;;;;;;10.17;80.78;101067.97;12180163;19;20440;-81
2022/04/16 06:21:29;;;;;;;10.27;4.25;;;;;;;10.37;80.47;101067.94;12208897;19;20107;-81
2022/04/16 06:25:32;;;;;;;8.20;4.65;;;;;;;10.47;79.69;101071.09;12206050;19;20010;-80
2022/04/16 06:29:34;;;;;;;11.00;4.97;;;;;;;10.63;78.80;101073.34;12183700;19;20007;-80
2022/04/16 06:33:35;;;;;;;10.75;6.18;;;;;;;10.82;78.12;101081.72;12207685;19;20369;-82
2022/04/16 06:37:38;;;;;;;13.00;8.07;;;;;;;10.87;76.58;101077.25;12202246;19;20443;-81
2022/04/16 06:41:40;;;;;;;7.93;4.55;;;;;;;10.94;76.36;101080.81;12178729;19;20015;-81
2022/04/16 06:45:41;;;;;;;7.60;5.07;;;;;;;11.03;75.28;101072.28;12200604;19;20377;-80
2022/04/16 06:49:43;;;;;;;8.38;4.05;;;;;;;11.16;75.09;101086.00;12203418;19;20027;-81
2022/04/16 06:53:45;;;;;;;6.28;4.18;;;;;;;11.35;74.32;101086.91;12171257;19;20120;-81
2022/04/16 06:57:46;;;;;;;11.70;4.13;;;;;;;11.51;73.51;101093.78;12192090;19;20007;-83
2022/04/16 07:01:48;;;;;;;6.80;4.40;;;;;;;11.46;71.76;101100.00;12203128;19;20005;-82
2022/04/16 07:05:50;;;;;;;6.10;3.63;;;;;;;11.55;71.75;101092.28;12179480;19;20011;-81
2022/04/16 07:09:52;;;;;;;7.45;4.35;;;;;;;11.61;71.25;101097.75;12200021;19;20010;-81
2022/04/16 07:13:53;;;;;;;7.72;3.78;;;;;;;11.68;70.84;101108.72;12188763;19;20470;-81
2022/04/16 07:17:55;;;;;;;8.75;3.90;;;;;;;11.33;69.59;101105.59;12186452;19;20014;-81
2022/04/16 07:21:57;;;;;;;6.53;3.85;;;;;;;11.10;69.79;101106.19;12210791;19;20021;-81
2022/04/16 07:25:59;;;;;;;6.43;4.82;;;;;;;11.17;69.67;101104.22;12204928;19;20011;-80
2022/04/16 07:30:01;;;;;;;5.90;3.58;;;;;;;11.24;68.85;101099.50;12189053;19;20021;-79
2022/04/16 07:34:02;;;;;;;7.03;3.28;;;;;;;11.17;69.33;101106.97;12209310;19;20018;-82
2022/04/16 07:38:04;;;;;;;6.47;4.10;;;;;;;10.85;68.55;101100.59;12216903;19;20003;-81
2022/04/16 07:42:06;;;;;;;7.22;3.70;;;;;;;10.82;69.37;101099.13;12197465;19;20019;-82
2022/04/16 07:46:08;;;;;;;7.30;3.72;;;;;;;10.69;69.54;101111.06;12214859;19;20081;-82
2022/04/16 07:50:11;;;;;;;6.88;4.05;;;;;;;10.71;69.21;101114.47;12212965;19;20122;-84
2022/04/16 07:54:12;;;;;;;7.45;3.80;;;;;;;10.82;68.74;101110.16;12194815;19;20031;-82
2022/04/16 07:58:14;;;;;;;7.85;3.75;;;;;;;11.10;67.86;101114.47;12205926;19;20010;-82
2022/04/16 08:02:16;;;;;;;5.53;3.35;;;;;;;11.46;66.29;101116.56;12221375;19;20023;-81
2022/04/16 08:06:21;;;;;;;5.32;3.40;;;;;;;11.76;65.25;101113.13;12196095;19;20555;-83
2022/04/16 08:10:23;;;;;;;4.43;2.85;;;;;;;11.79;64.31;101118.19;12208210;19;20016;-83
2022/04/16 08:14:26;;;;;;;5.78;3.08;;;;;;;11.63;62.17;101111.34;12186526;19;20002;-82
2022/04/16 08:18:29;;;;;;;4.35;2.78;;;;;;;11.80;63.43;101128.16;12208417;19;20014;-81
2022/04/16 08:22:34;;;;;;;;;;;;;;;12.02;61.66;101126.72;12217197;19;20007;-81
2022/04/16 08:26:36;;;;;;;4.95;2.42;;;;;;;12.37;62.08;101131.66;12185657;19;20439;-80
2022/04/16 08:30:38;;;;;;;6.25;2.53;;;;;;;12.64;60.13;101140.50;12207861;19;20017;-81
2022/04/16 08:34:40;;;;;;;5.82;3.35;;;;;;;12.90;59.00;101146.78;12205492;19;20100;-83
2022/04/16 08:38:41;;;;;;;5.30;3.05;;;;;;;12.96;57.53;101148.59;12182127;19;20531;-84
2022/04/16 08:42:47;;;;;;;5.00;3.10;;;;;;;13.00;57.22;101153.47;12205061;19;20472;-83
2022/04/16 08:46:49;;;;;;;4.78;2.50;;;;;;;13.02;57.21;101147.66;12210548;19;20014;-82
2022/04/16 08:50:51;;;;;;;5.95;3.67;;;;;;;12.98;57.89;101152.84;12189113;19;20063;-83
2022/04/16 08:54:55;;;;;;;4.87;2.83;;;;;;;13.08;57.46;101157.81;12207932;19;20014;-82
2022/04/16 08:58:56;;;;;;;5.50;2.80;;;;;;;13.17;57.71;101161.09;12213282;19;20020;-82
2022/04/16 09:03:03;;;;;;;5.70;2.60;;;;;;;13.33;56.49;101166.03;12188992;19;20003;-82
2022/04/16 09:07:05;;;;;;;4.50;2.65;;;;;;;13.21;55.14;101174.25;12215863;19;20061;-83
2022/04/16 09:11:11;;;;;;;6.57;2.80;;;;;;;13.37;55.98;101169.16;12211796;19;20007;-80
2022/04/16 09:15:13;;;;;;;3.78;2.35;;;;;;;13.80;54.39;101162.50;12171101;19;20010;-82
2022/04/16 09:19:21;;;;;;;3.50;2.15;;;;;;;14.15;53.84;101159.78;12201950;19;20502;-83
2022/04/16 09:23:23;;;;;;;4.05;2.10;;;;;;;14.73;50.98;101160.88;12190920;19;20014;-82
2022/04/16 09:27:25;;;;;;;6.30;3.63;;;;;;;14.73;51.33;101155.31;12203362;19;20362;-81
2022/04/16 09:31:28;;;;;;;4.05;2.30;;;;;;;14.95;50.46;101156.31;12204016;19;20082;-82
2022/04/16 09:35:37;;;;;;;3.67;2.40;;;;;;;15.24;49.00;101145.25;12171977;19;20010;-84
2022/04/16 09:39:44;;;;;;;4.95;1.73;;;;;;;15.61;48.39;101159.53;12201840;19;20010;-83
2022/04/16 09:43:45;;;;;;;3.97;2.00;;;;;;;15.97;46.57;101164.88;12207497;19;20375;-82
2022/04/16 09:47:49;;;;;;;2.97;1.55;;;;;;;16.33;46.78;101166.28;12179372;19;20369;-82
2022/04/16 09:51:52;;;;;;;2.83;1.70;;;;;;;16.06;44.85;101158.69;12200472;19;20014;-82
2022/04/16 09:55:54;;;;;;;2.30;1.60;;;;;;;16.52;43.75;101167.69;12194760;19;20499;-83
2022/04/16 09:59:58;;;;;;;2.03;1.33;;;;;;;16.76;42.90;101165.56;12180527;19;20348;-82
2022/04/16 10:04:00;;;;;;;4.22;1.52;;;;;;;17.07;42.89;101171.50;12206313;19;20277;-81
2022/04/16 10:08:03;;;;;;;2.47;1.58;;;;;;;17.25;42.13;101173.09;12210233;19;20014;-82
2022/04/16 10:16:45;;;;;;;3.35;1.80;;;;;;;17.25;41.63;101170.31;12192695;19;20502;-82
2022/04/16 10:20:54;;;;;;;3.30;1.70;;;;;;;16.62;42.31;101165.03;12178685;19;20074;-82
2022/04/16 10:24:59;;;;;;;3.35;1.77;;;;;;;15.68;43.04;101157.47;12205775;19;20074;-81
2022/04/16 10:29:00;;;;;;;2.10;1.52;;;;;;;15.71;44.02;101150.56;12195554;19;20017;-83
2022/04/16 10:33:23;;;;;;;4.22;1.75;;;;;;;15.83;42.76;101151.34;12194303;19;20079;-81
2022/04/16 10:37:25;;;;;;;2.47;1.10;;;;;;;16.04;42.45;101149.75;12202314;19;20033;-82
2022/04/16 10:41:28;;;;;;;2.40;1.75;;;;;;;15.77;40.62;101141.22;12183988;19;20006;-82
2022/04/16 10:45:35;;;;;;;1.98;1.13;;;;;;;15.71;38.49;101136.69;12210642;19;20018;-81
2022/04/16 10:49:40;;;;;;;2.95;1.55;;;;;;;16.06;40.08;101127.22;12194849;19;20010;-82
2022/04/16 10:53:42;;;;;;;2.92;1.52;;;;;;;16.16;38.42;101131.00;12187133;19;20372;-81
2022/04/16 10:57:55;;;;;;;2.67;1.20;;;;;;;16.34;37.95;101135.44;12200505;19;20057;-81
2022/04/16 11:01:58;;;;;;;2.72;1.40;;;;;;;16.05;35.95;101140.28;12200954;19;20014;-80
2022/04/16 11:06:04;;;;;;;4.47;1.63;;;;;;;16.10;37.11;101140.38;12182362;19;20472;-82
2022/04/16 11:10:10;;;;;;;2.55;1.10;;;;;;;16.36;38.05;101135.22;12201516;19;20030;-81
2022/04/16 11:14:12;;;;;;;3.33;1.60;;;;;;;16.58;37.48;101138.00;12198486;19;20404;-82
2022/04/16 11:18:19;;;;;;;3.35;1.60;;;;;;;16.52;36.20;101127.91;12173380;19;20489;-81
2022/04/16 11:22:21;;;;;;;2.58;1.17;;;;;;;16.57;37.25;101139.94;12201402;19;20349;-82
2022/04/16 11:35:11;;;;;;;3.05;1.35;;;;;;;16.49;35.78;101114.50;12198491;19;20010;-80
2022/04/16 11:39:21;;;;;;;3.28;1.52;;;;;;;17.05;36.23;101130.00;12181975;19;20467;-82
2022/04/16 11:43:24;;;;;;;3.97;1.60;;;;;;;17.55;33.03;101122.44;12205832;19;20018;-81
2022/04/16 11:47:28;;;;;;;5.67;1.63;;;;;;;17.84;31.50;101127.72;12181901;19;20036;-81
2022/04/16 11:51:30;;;;;;;4.63;1.48;;;;;;;18.52;31.94;101120.38;12198142;19;20026;-80
2022/04/16 11:55:31;;;;;;;2.60;1.27;;;;;;;18.94;30.26;101116.69;12194453;19;20082;-80
2022/04/16 11:59:34;;;;;;;2.63;1.17;;;;;;;19.29;30.51;101123.50;12174589;19;20018;-81
2022/04/16 12:03:39;;;;;;;5.13;1.30;;;;;;;19.53;29.33;101119.06;12202021;19;20105;-80
2022/04/16 12:07:48;;;;;;;2.55;1.20;;;;;;;19.93;28.46;101110.97;12222840;19;20011;-81
2022/04/16 12:11:54;;;;;;;2.60;1.23;;;;;;;20.46;27.79;101115.09;12183601;19;20011;-80
2022/04/16 12:16:03;;;;;;;1.98;1.00;;;;;;;20.97;25.09;101116.91;12202406;19;20559;-81
2022/04/16 12:20:06;;;;;;;3.97;0.90;;;;;;;20.85;25.20;101108.81;12212322;19;20081;-81
2022/04/16 12:24:09;;;;;;;1.38;0.95;;;;;;;21.64;25.76;101111.72;12193875;19;20027;-82
2022/04/16 12:28:12;;;;;;;3.92;1.35;;;;;;;21.75;24.16;101116.13;12206991;19;20007;-81
2022/04/16 12:32:24;;;;;;;2.13;1.20;;;;;;;21.94;23.99;101116.22;12209705;19;20007;-79
2022/04/16 12:36:28;;;;;;;2.90;1.20;;;;;;;21.51;23.00;101113.22;12189463;19;20459;-81
2022/04/16 12:40:31;;;;;;;3.08;1.30;;;;;;;22.15;22.18;101100.03;12208459;19;20019;-80
2022/04/16 12:44:33;;;;;;;2.03;1.17;;;;;;;22.05;22.20;101089.75;12191218;19;20018;-82
2022/04/16 12:48:35;;;;;;;2.08;1.20;;;;;;;22.64;21.96;101089.72;12232404;19;20009;-81
2022/04/16 12:52:37;;;;;;;3.93;1.23;;;;;;;22.92;21.97;101096.34;12244365;19;20720;-81
2022/04/16 12:56:42;;;;;;;1.65;1.00;;;;;;;23.35;20.30;101087.88;12220437;19;20006;-78
2022/04/16 13:00:46;;;;;;;1.67;1.02;;;;;;;23.09;18.33;101079.84;12216404;19;20026;-80
2022/04/16 13:04:50;;;;;;;3.22;1.17;;;;;;;23.40;19.82;101079.38;12209450;19;20029;-81
2022/04/16 13:08:56;;;;;;;2.53;0.80;;;;;;;23.80;18.94;101074.28;12184083;19;20180;-80
2022/04/16 13:12:59;;;;;;;2.28;1.00;;;;;;;24.30;18.90;101083.75;12202501;19;20362;-80
2022/04/16 13:17:02;;;;;;;2.83;1.20;;;;;;;24.74;18.36;101071.03;12198900;19;20099;-80
2022/04/16 13:21:09;;;;;;;2.70;1.05;;;;;;;25.03;17.83;101067.03;12181233;19;20016;-80
2022/04/16 13:25:11;;;;;;;2.42;1.02;;;;;;;25.42;17.82;101066.41;12205207;19;20019;-80
2022/04/16 13:29:12;;;;;;;1.70;1.33;;;;;;;24.97;17.63;101065.47;12202402;19;20435;-80
2022/04/16 13:33:15;;;;;;;1.60;0.90;;;;;;;25.54;17.38;101054.53;12182932;19;20002;-80
2022/04/16 13:37:18;;;;;;;3.40;1.10;;;;;;;25.54;17.39;101056.53;12203307;19;20010;-81
2022/04/16 13:41:39;;;;;;;1.83;1.08;;;;;;;25.59;16.84;101064.88;12188199;19;20006;-79
2022/04/16 13:45:40;;;;;;;4.18;1.00;;;;;;;25.16;16.41;101056.88;12205362;19;20014;-80
2022/04/16 13:49:42;;;;;;;1.52;1.20;;;;;;;26.40;16.64;101052.56;12200253;19;20018;-81
2022/04/16 13:53:45;;;;;;;1.98;1.00;;;;;;;26.66;16.76;101058.34;12178979;19;20025;-82
2022/04/16 13:57:47;;;;;;;1.42;0.95;;;;;;;24.91;17.04;101047.00;12201665;19;20374;-82
2022/04/16 14:01:50;;;;;;;3.80;1.33;;;;;;;22.89;19.20;101057.63;12197505;19;20019;-80
2022/04/16 14:05:51;;;;;;;3.28;0.80;;;;;;;21.32;19.98;101056.13;12180474;19;20937;-82
2022/04/16 14:09:53;;;;;;;1.63;0.88;;;;;;;20.28;20.41;101048.50;12215194;19;20038;-83
2022/04/16 14:13:55;;;;;;;2.85;1.02;;;;;;;19.33;21.11;101046.34;12205636;19;20016;-83
2022/04/16 14:17:57;;;;;;;1.67;0.87;;;;;;;18.92;21.35;101040.72;12186680;19;20037;-82
2022/04/16 14:21:58;;;;;;;1.33;0.73;;;;;;;18.14;21.18;101041.47;12200376;19;20093;-81
2022/04/16 14:26:02;;;;;;;13.75;1.88;;;;;;;17.82;20.20;101035.13;12200485;19;21512;-79
2022/04/16 14:30:04;;;;;;;1.45;0.70;;;;;;;18.17;21.01;101035.38;12184455;19;20018;-80
2022/04/16 14:34:07;;;;;;;1.33;0.70;;;;;;;18.71;21.34;101031.41;12204066;19;20006;-79
2022/04/16 14:38:12;;;;;;;1.83;0.80;;;;;;;19.08;20.24;101036.84;12212952;19;20011;-81
2022/04/16 14:42:15;;;;;;;1.52;0.63;;;;;;;19.38;19.74;101032.38;12183677;19;20014;-81
2022/04/16 14:46:18;;;;;;;1.30;0.85;;;;;;;19.66;19.52;101018.97;12198028;19;20015;-81
2022/04/16 14:50:20;;;;;;;4.07;1.35;;;;;;;19.27;20.02;101025.09;12199195;19;20041;-79
2022/04/16 14:54:23;;;;;;;;;;;;;;;19.46;19.26;101028.22;12203404;19;20033;-81
2022/04/16 14:58:25;;;;;;;3.65;1.50;;;;;;;19.42;19.81;101029.88;12197316;19;19915;-79
2022/04/16 15:02:27;;;;;;;3.10;0.80;;;;;;;19.05;20.13;101034.59;12174932;19;20562;-80
2022/04/16 15:06:28;;;;;;;2.22;0.80;;;;;;;18.74;20.44;101021.66;12208126;19;20379;-79
2022/04/16 15:10:30;;;;;;;1.60;1.13;;;;;;;18.34;20.59;101035.16;12206832;19;20007;-80
2022/04/16 15:14:32;;;;;;;1.58;1.00;;;;;;;18.01;20.13;101036.38;12178858;19;20010;-82
2022/04/16 15:18:34;;;;;;;1.60;0.82;;;;;;;17.68;20.58;101024.44;12208555;19;20474;-81
2022/04/16 15:22:40;;;;;;;2.15;0.80;;;;;;;17.60;20.44;101033.28;12211927;19;20092;-81
2022/04/16 15:26:41;;;;;;;1.77;0.75;;;;;;;17.46;20.94;101027.34;12186244;19;20022;-80
2022/04/16 15:30:46;;;;;;;1.63;0.75;;;;;;;17.41;21.04;101020.88;12204046;19;20090;-82
2022/04/16 15:34:48;;;;;;;3.58;0.90;;;;;;;17.26;21.10;101018.81;12208766;19;20006;-80
2022/04/16 15:38:49;;;;;;;1.70;0.65;;;;;;;17.13;21.13;101033.16;12183684;19;20607;-81
2022/04/16 15:42:52;;;;;;;3.58;0.82;;;;;;;16.70;21.13;101023.78;12207866;19;20019;-83
2022/04/16 15:46:54;;;;;;;2.03;0.80;;;;;;;16.69;22.01;101031.28;12215486;19;20023;-82
2022/04/16 15:50:55;;;;;;;1.48;1.33;;;;;;;16.63;21.63;101029.56;12196781;19;20011;-83
2022/04/16 15:54:57;;;;;;;1.55;0.88;;;;;;;16.58;21.67;101024.75;12209888;19;20412;-81
2022/04/16 15:59:01;;;;;;;1.50;0.98;;;;;;;16.98;21.41;101029.09;12214662;19;20422;-81
2022/04/16 16:03:03;;;;;;;1.65;0.90;;;;;;;17.08;21.33;101033.97;12191649;19;20018;-81
2022/04/16 16:07:04;;;;;;;1.88;1.00;;;;;;;17.03;21.64;101025.53;12228617;19;20388;-82
2022/04/16 16:11:06;;;;;;;2.95;1.25;;;;;;;17.43;22.17;101029.78;12217898;19;20011;-82
2022/04/16 16:15:09;;;;;;;2.22;1.35;;;;;;;17.79;21.43;101027.31;12195480;19;20007;-84
2022/04/16 16:19:11;;;;;;;1.48;1.02;;;;;;;17.81;21.87;101033.47;12222858;19;20761;-83
2022/04/16 16:23:13;;;;;;;2.50;1.40;;;;;;;18.18;21.55;101031.47;12222999;19;20011;-83
2022/04/16 16:27:15;;;;;;;1.98;1.27;;;;;;;18.93;21.02;101024.81;12192559;19;20023;-82
2022/04/16 16:31:20;;;;;;;3.15;1.60;;;;;;;19.43;20.66;101025.97;12220786;19;20049;-84
2022/04/16 16:35:22;;;;;;;1.90;1.50;;;;;;;18.82;20.70;101019.19;12189158;19;20018;-84
2022/04/16 16:39:24;;;;;;;2.60;1.80;;;;;;;18.59;21.21;101028.00;12220728;19;20007;-83
2022/04/16 16:43:27;;;;;;;4.50;1.77;;;;;;;18.33;20.84;101032.66;12214382;19;20022;-85
2022/04/16 16:47:29;;;;;;;3.28;1.70;;;;;;;18.29;20.26;101028.72;12186617;19;20019;-84
2022/04/16 16:51:31;;;;;;;2.47;1.53;;;;;;;18.56;20.78;101032.22;12206565;19;20014;-84
2022/04/16 16:55:33;;;;;;;2.60;1.70;;;;;;;18.40;20.87;101036.03;12216016;19;20022;-83
2022/04/16 16:59:35;;;;;;;1.95;1.60;;;;;;;17.79;20.87;101025.38;12217094;19;20630;-82
2022/04/16 17:07:57;;;;;;;3.28;1.92;;;;;;;17.01;22.10;101038.88;12241202;19;20015;-81
2022/04/16 17:11:59;;;;;;;2.95;2.38;;;;;;;16.93;22.67;101042.16;12192364;19;20089;-83
2022/04/16 17:20:26;;;;;;;3.17;2.03;;;;;;;16.85;22.23;101046.25;12185135;19;20633;-85
2022/04/16 17:24:29;;;;;;;2.20;1.83;;;;;;;16.95;22.35;101045.50;12212699;19;20356;-83
2022/04/16 17:28:32;;;;;;;;;;;;;;;16.85;22.50;101041.50;12214492;19;20019;-83
2022/04/16 17:32:33;;;;;;;2.20;1.38;;;;;;;16.52;22.51;101033.31;12189250;19;20305;-84
2022/04/16 17:36:35;;;;;;;2.47;1.60;;;;;;;16.35;23.34;101036.97;12206553;19;20023;-84
2022/04/16 17:40:37;;;;;;;3.63;1.75;;;;;;;16.39;23.24;101035.38;12211779;19;20073;-83
2022/04/16 17:44:39;;;;;;;1.70;1.60;;;;;;;16.89;24.39;101046.56;12176310;19;20010;-83
2022/04/16 17:48:41;;;;;;;2.53;1.50;;;;;;;17.10;24.67;101040.09;12216140;19;20118;-83
2022/04/16 17:52:43;;;;;;;3.10;1.70;;;;;;;17.25;25.10;101045.81;12205181;19;20010;-83
2022/04/16 17:56:45;;;;;;;2.50;1.38;;;;;;;16.77;26.02;101050.31;12190603;19;20010;-84
2022/04/16 18:00:46;;;;;;;3.05;1.50;;;;;;;15.99;25.42;101055.13;12216500;19;20029;-83
2022/04/16 18:04:48;;;;;;;4.72;2.45;;;;;;;15.31;26.93;101059.00;12205949;19;20366;-83
2022/04/16 18:08:53;;;;;;;1.95;1.27;;;;;;;14.54;27.52;101066.69;12190672;19;20730;-80
2022/04/16 18:12:54;;;;;;;3.03;1.30;;;;;;;14.00;27.57;101066.03;12209784;19;20014;-81
2022/04/16 18:16:57;;;;;;;4.47;1.40;;;;;;;13.51;29.13;101070.97;12205004;19;20014;-82
2022/04/16 18:20:59;;;;;;;2.15;1.23;;;;;;;13.10;30.65;101080.09;12192155;19;20495;-82
2022/04/16 18:25:01;;;;;;;1.95;1.30;;;;;;;12.74;31.16;101084.66;12213101;19;20106;-81
2022/04/16 18:29:04;;;;;;;1.55;1.05;;;;;;;12.34;32.08;101087.06;12209390;19;20010;-82
2022/04/16 18:33:06;;;;;;;3.72;1.35;;;;;;;11.94;32.88;101088.34;12179280;19;20085;-82
2022/04/16 18:37:08;;;;;;;2.95;1.05;;;;;;;11.68;33.10;101094.91;12197986;19;20010;-81
2022/04/16 18:41:20;;;;;;;1.65;1.08;;;;;;;11.37;33.86;101102.19;12209687;19;20011;-82
2022/04/16 18:45:24;;;;;;;3.08;1.10;;;;;;;11.10;34.35;101106.19;12206442;19;20008;-81
2022/04/16 18:49:27;;;;;;;1.73;1.10;;;;;;;10.87;35.16;101107.59;12205512;19;20037;-81
2022/04/16 18:53:29;;;;;;;4.20;1.30;;;;;;;10.69;35.69;101107.47;12184714;19;20014;-81
2022/04/16 18:57:33;;;;;;;3.90;1.30;;;;;;;10.48;36.45;101114.97;12208682;19;20081;-81
2022/04/16 19:10:16;;;;;;;3.63;1.45;;;;;;;9.84;37.57;101140.47;12207910;19;20017;-80
2022/04/16 19:14:28;;;;;;;1.80;1.10;;;;;;;9.65;38.04;101133.09;12193117;19;20049;-81
2022/04/16 19:18:30;;;;;;;2.47;1.40;;;;;;;9.49;38.10;101140.72;12217649;19;20027;-80
2022/04/16 19:22:32;;;;;;;1.13;1.00;;;;;;;9.37;38.17;101145.13;12217903;19;20023;-82